Tekakwitha, South Dakota
Current Conditions -  °F | °C
As of 4:16 AM on Friday 31 Oct 2014 (Local Time) from KETH Reporting Station
Clear Clear  
Wind Chill: -11°   Ceiling: Unl
Heat Index: -7°   Visibility: 10mi
Dew Point: -9°   Wind: 5mph
Humidity: 86%   Direction: 330°NNW
Pressure: 30.59"   Gusts: NA
Location:  45.7041°N, 96.9842°W
Report Text: KETH 310916Z AUTO 33004KT 10SM CLR M07/M09 A3059 RMK AO2
Loading
Personal Weather Stations






























Interactive Weather Map
Tropical Storm Tracking
New forecast layout! Learn more

10-Day Weather Forecast

Advertisements
Track Severe Weather on mobile